sensor_id;sensor_type;location;lat;lon;timestamp;temperature;humidity
22850;DHT22;11591;44.792;10.358;2022-09-09T04:27:03;21.20;99.90
22850;DHT22;11591;44.792;10.358;2022-09-09T04:29:30;21.30;99.90
22850;DHT22;11591;44.792;10.358;2022-09-09T04:31:56;20.90;99.90
22850;DHT22;11591;44.792;10.358;2022-09-09T04:38:03;21.00;99.90
22850;DHT22;11591;44.792;10.358;2022-09-09T04:40:31;21.00;99.90
22850;DHT22;11591;44.792;10.358;2022-09-09T04:42:58;20.90;99.90
22850;DHT22;11591;44.792;10.358;2022-09-09T04:45:24;20.90;99.90
22850;DHT22;11591;44.792;10.358;2022-09-09T04:47:53;21.00;99.90
22850;DHT22;11591;44.792;10.358;2022-09-09T04:50:20;21.00;99.90
22850;DHT22;11591;44.792;10.358;2022-09-09T04:52:46;20.90;99.90
22850;DHT22;11591;44.792;10.358;2022-09-09T04:55:13;20.90;99.90
22850;DHT22;11591;44.792;10.358;2022-09-09T04:57:42;20.90;99.90
22850;DHT22;11591;44.792;10.358;2022-09-09T05:00:11;20.90;99.90
22850;DHT22;11591;44.792;10.358;2022-09-09T05:02:40;20.90;99.90
22850;DHT22;11591;44.792;10.358;2022-09-09T05:05:08;20.90;99.90
22850;DHT22;11591;44.792;10.358;2022-09-09T05:07:34;20.70;99.90
22850;DHT22;11591;44.792;10.358;2022-09-09T05:10:01;20.80;99.90
22850;DHT22;11591;44.792;10.358;2022-09-09T05:12:31;20.70;99.90
22850;DHT22;11591;44.792;10.358;2022-09-09T05:14:57;20.70;99.90
22850;DHT22;11591;44.792;10.358;2022-09-09T05:17:23;20.70;99.90
22850;DHT22;11591;44.792;10.358;2022-09-09T05:19:49;20.60;99.90
22850;DHT22;11591;44.792;10.358;2022-09-09T05:22:19;20.60;99.90
22850;DHT22;11591;44.792;10.358;2022-09-09T05:24:47;20.60;99.90
22850;DHT22;11591;44.792;10.358;2022-09-09T05:27:13;20.60;99.90
22850;DHT22;11591;44.792;10.358;2022-09-09T05:29:40;20.70;99.90
22850;DHT22;11591;44.792;10.358;2022-09-09T05:32:09;20.80;99.90
22850;DHT22;11591;44.792;10.358;2022-09-09T05:34:35;20.80;99.90
22850;DHT22;11591;44.792;10.358;2022-09-09T05:37:03;20.80;99.90
22850;DHT22;11591;44.792;10.358;2022-09-09T05:39:31;20.80;99.90
22850;DHT22;11591;44.792;10.358;2022-09-09T05:41:58;20.80;99.90
22850;DHT22;11591;44.792;10.358;2022-09-09T05:44:24;20.70;99.90
22850;DHT22;11591;44.792;10.358;2022-09-09T05:46:53;20.70;99.90
22850;DHT22;11591;44.792;10.358;2022-09-09T05:49:21;20.70;99.90
22850;DHT22;11591;44.792;10.358;2022-09-09T05:51:47;20.70;99.90
22850;DHT22;11591;44.792;10.358;2022-09-09T05:54:16;20.70;99.90
22850;DHT22;11591;44.792;10.358;2022-09-09T05:56:47;20.80;99.90
22850;DHT22;11591;44.792;10.358;2022-09-09T05:59:15;20.90;99.90
22850;DHT22;11591;44.792;10.358;2022-09-09T06:01:41;21.00;99.90
22850;DHT22;11591;44.792;10.358;2022-09-09T06:04:13;21.10;99.90
22850;DHT22;11591;44.792;10.358;2022-09-09T06:06:40;21.20;99.90
22850;DHT22;11591;44.792;10.358;2022-09-09T06:09:18;21.30;99.90
22850;DHT22;11591;44.792;10.358;2022-09-09T06:11:44;21.40;99.90
22850;DHT22;11591;44.792;10.358;2022-09-09T06:14:11;21.50;99.90
22850;DHT22;11591;44.792;10.358;2022-09-09T06:16:38;21.60;99.90
22850;DHT22;11591;44.792;10.358;2022-09-09T06:19:08;21.60;99.90
22850;DHT22;11591;44.792;10.358;2022-09-09T06:21:36;21.60;99.90
22850;DHT22;11591;44.792;10.358;2022-09-09T06:24:04;21.60;99.90
22850;DHT22;11591;44.792;10.358;2022-09-09T06:26:32;21.60;99.90
22850;DHT22;11591;44.792;10.358;2022-09-09T06:29:01;21.60;99.90
22850;DHT22;11591;44.792;10.358;2022-09-09T06:31:31;21.60;99.90
22850;DHT22;11591;44.792;10.358;2022-09-09T06:34:06;21.60;99.90
22850;DHT22;11591;44.792;10.358;2022-09-09T06:36:35;21.60;99.90
22850;DHT22;11591;44.792;10.358;2022-09-09T06:39:02;21.60;99.90
22850;DHT22;11591;44.792;10.358;2022-09-09T06:41:32;21.60;99.90
22850;DHT22;11591;44.792;10.358;2022-09-09T06:43:59;21.70;99.90
22850;DHT22;11591;44.792;10.358;2022-09-09T06:46:41;21.70;99.90
22850;DHT22;11591;44.792;10.358;2022-09-09T06:49:08;21.70;99.90
22850;DHT22;11591;44.792;10.358;2022-09-09T06:51:36;21.80;99.90
22850;DHT22;11591;44.792;10.358;2022-09-09T06:54:09;21.80;99.90
22850;DHT22;11591;44.792;10.358;2022-09-09T06:56:37;21.90;99.90
22850;DHT22;11591;44.792;10.358;2022-09-09T06:59:08;21.90;99.90
22850;DHT22;11591;44.792;10.358;2022-09-09T07:01:40;22.00;99.90
22850;DHT22;11591;44.792;10.358;2022-09-09T07:04:10;22.00;99.90
22850;DHT22;11591;44.792;10.358;2022-09-09T07:06:41;22.10;99.90
22850;DHT22;11591;44.792;10.358;2022-09-09T07:09:11;22.10;99.90
22850;DHT22;11591;44.792;10.358;2022-09-09T07:11:44;22.10;99.90
22850;DHT22;11591;44.792;10.358;2022-09-09T07:14:11;22.20;99.90
22850;DHT22;11591;44.792;10.358;2022-09-09T07:16:44;22.20;99.90
22850;DHT22;11591;44.792;10.358;2022-09-09T07:19:11;22.20;99.90
22850;DHT22;11591;44.792;10.358;2022-09-09T07:21:38;22.10;99.90
22850;DHT22;11591;44.792;10.358;2022-09-09T07:24:06;22.10;99.90
22850;DHT22;11591;44.792;10.358;2022-09-09T07:26:38;22.10;99.90
22850;DHT22;11591;44.792;10.358;2022-09-09T07:29:04;22.20;99.90
22850;DHT22;11591;44.792;10.358;2022-09-09T07:31:33;22.20;99.90
22850;DHT22;11591;44.792;10.358;2022-09-09T07:34:01;22.20;99.90
22850;DHT22;11591;44.792;10.358;2022-09-09T07:36:33;22.20;99.90
22850;DHT22;11591;44.792;10.358;2022-09-09T07:39:02;22.20;99.90
22850;DHT22;11591;44.792;10.358;2022-09-09T07:41:35;22.20;99.90
22850;DHT22;11591;44.792;10.358;2022-09-09T07:44:13;22.20;99.90
22850;DHT22;11591;44.792;10.358;2022-09-09T07:46:41;22.20;99.90
22850;DHT22;11591;44.792;10.358;2022-09-09T07:49:09;22.10;99.90
22850;DHT22;11591;44.792;10.358;2022-09-09T07:51:38;22.10;99.90
22850;DHT22;11591;44.792;10.358;2022-09-09T07:54:07;22.10;99.90
22850;DHT22;11591;44.792;10.358;2022-09-09T07:56:36;22.10;99.90
22850;DHT22;11591;44.792;10.358;2022-09-09T07:59:03;22.20;99.90
22850;DHT22;11591;44.792;10.358;2022-09-09T08:01:38;22.20;99.90
22850;DHT22;11591;44.792;10.358;2022-09-09T08:04:11;22.40;99.90
22850;DHT22;11591;44.792;10.358;2022-09-09T08:06:47;22.60;99.90
22850;DHT22;11591;44.792;10.358;2022-09-09T08:09:15;22.60;99.90
22850;DHT22;11591;44.792;10.358;2022-09-09T08:11:42;22.60;99.90
22850;DHT22;11591;44.792;10.358;2022-09-09T08:14:09;22.80;99.90
22850;DHT22;11591;44.792;10.358;2022-09-09T08:16:42;22.80;99.90
22850;DHT22;11591;44.792;10.358;2022-09-09T08:19:08;22.90;99.90
22850;DHT22;11591;44.792;10.358;2022-09-09T08:21:36;22.90;99.90
22850;DHT22;11591;44.792;10.358;2022-09-09T08:24:04;23.00;99.90
22850;DHT22;11591;44.792;10.358;2022-09-09T08:26:36;23.10;99.90
22850;DHT22;11591;44.792;10.358;2022-09-09T08:29:05;23.10;99.90
22850;DHT22;11591;44.792;10.358;2022-09-09T08:31:34;23.20;99.90
22850;DHT22;11591;44.792;10.358;2022-09-09T08:34:02;23.20;99.90
22850;DHT22;11591;44.792;10.358;2022-09-09T08:36:35;23.20;99.90
22850;DHT22;11591;44.792;10.358;2022-09-09T08:39:03;23.20;99.90
22850;DHT22;11591;44.792;10.358;2022-09-09T08:50:26;23.30;99.90
22850;DHT22;11591;44.792;10.358;2022-09-09T08:53:02;23.40;99.90
22850;DHT22;11591;44.792;10.358;2022-09-09T08:58:13;23.40;99.90
22850;DHT22;11591;44.792;10.358;2022-09-09T09:03:23;23.40;99.90
22850;DHT22;11591;44.792;10.358;2022-09-09T09:11:04;23.30;99.90
22850;DHT22;11591;44.792;10.358;2022-09-09T09:13:47;23.40;99.90
22850;DHT22;11591;44.792;10.358;2022-09-09T09:16:34;23.40;99.90
22850;DHT22;11591;44.792;10.358;2022-09-09T09:19:04;23.40;99.90
22850;DHT22;11591;44.792;10.358;2022-09-09T09:25:21;23.50;99.90
22850;DHT22;11591;44.792;10.358;2022-09-09T09:30:59;23.70;99.90
22850;DHT22;11591;44.792;10.358;2022-09-09T09:33:49;23.80;99.90
22850;DHT22;11591;44.792;10.358;2022-09-09T09:36:17;23.80;99.90
22850;DHT22;11591;44.792;10.358;2022-09-09T09:38:58;23.80;99.90
22850;DHT22;11591;44.792;10.358;2022-09-09T09:41:38;23.90;99.90
22850;DHT22;11591;44.792;10.358;2022-09-09T09:44:23;23.90;99.90
22850;DHT22;11591;44.792;10.358;2022-09-09T09:46:49;23.90;99.90
22850;DHT22;11591;44.792;10.358;2022-09-09T09:49:15;24.00;99.90
22850;DHT22;11591;44.792;10.358;2022-09-09T09:51:43;24.10;99.90
22850;DHT22;11591;44.792;10.358;2022-09-09T09:56:40;24.20;99.90
22850;DHT22;11591;44.792;10.358;2022-09-09T09:59:33;24.20;99.90
22850;DHT22;11591;44.792;10.358;2022-09-09T10:02:19;24.30;99.90
22850;DHT22;11591;44.792;10.358;2022-09-09T10:05:01;24.40;99.90
22850;DHT22;11591;44.792;10.358;2022-09-09T10:07:28;24.40;99.90
22850;DHT22;11591;44.792;10.358;2022-09-09T10:09:56;24.40;99.90
22850;DHT22;11591;44.792;10.358;2022-09-09T10:23:33;24.60;99.90
22850;DHT22;11591;44.792;10.358;2022-09-09T10:26:12;24.60;99.90
22850;DHT22;11591;44.792;10.358;2022-09-09T10:54:29;24.60;99.90
22850;DHT22;11591;44.792;10.358;2022-09-09T10:59:51;24.60;99.90
22850;DHT22;11591;44.792;10.358;2022-09-09T11:02:30;24.70;99.90
22850;DHT22;11591;44.792;10.358;2022-09-09T11:10:06;24.70;99.90
22850;DHT22;11591;44.792;10.358;2022-09-09T11:12:34;24.80;99.90
22850;DHT22;11591;44.792;10.358;2022-09-09T11:15:17;24.90;99.90
22850;DHT22;11591;44.792;10.358;2022-09-09T11:17:55;25.00;99.90
22850;DHT22;11591;44.792;10.358;2022-09-09T11:20:22;25.00;99.90
22850;DHT22;11591;44.792;10.358;2022-09-09T11:23:00;25.10;99.90
22850;DHT22;11591;44.792;10.358;2022-09-09T11:25:39;25.20;99.90
22850;DHT22;11591;44.792;10.358;2022-09-09T11:36:12;25.30;99.90
22850;DHT22;11591;44.792;10.358;2022-09-09T11:38:46;25.30;99.90
22850;DHT22;11591;44.792;10.358;2022-09-09T11:41:13;25.40;99.90
22850;DHT22;11591;44.792;10.358;2022-09-09T11:43:51;25.40;99.90
22850;DHT22;11591;44.792;10.358;2022-09-09T11:46:32;25.30;99.90
22850;DHT22;11591;44.792;10.358;2022-09-09T11:49:05;25.30;99.90
22850;DHT22;11591;44.792;10.358;2022-09-09T11:51:33;25.30;99.90
22850;DHT22;11591;44.792;10.358;2022-09-09T11:56:51;25.40;99.90
22850;DHT22;11591;44.792;10.358;2022-09-09T11:59:23;25.50;99.90
22850;DHT22;11591;44.792;10.358;2022-09-09T12:04:38;25.60;99.90
22850;DHT22;11591;44.792;10.358;2022-09-09T12:10:03;25.60;99.90
22850;DHT22;11591;44.792;10.358;2022-09-09T12:12:34;25.60;99.90
22850;DHT22;11591;44.792;10.358;2022-09-09T12:17:45;25.60;99.90
22850;DHT22;11591;44.792;10.358;2022-09-09T12:25:22;25.80;99.90
22850;DHT22;11591;44.792;10.358;2022-09-09T12:30:57;25.90;99.90
22850;DHT22;11591;44.792;10.358;2022-09-09T12:33:24;26.00;99.90
22850;DHT22;11591;44.792;10.358;2022-09-09T12:35:57;26.00;99.90
22850;DHT22;11591;44.792;10.358;2022-09-09T12:38:35;26.20;99.90
22850;DHT22;11591;44.792;10.358;2022-09-09T12:41:02;26.30;99.90
22850;DHT22;11591;44.792;10.358;2022-09-09T12:43:28;26.40;99.90
22850;DHT22;11591;44.792;10.358;2022-09-09T12:46:06;26.50;99.90
22850;DHT22;11591;44.792;10.358;2022-09-09T12:48:39;26.60;99.90
22850;DHT22;11591;44.792;10.358;2022-09-09T12:51:27;26.50;99.90
22850;DHT22;11591;44.792;10.358;2022-09-09T12:53:54;26.50;99.90
22850;DHT22;11591;44.792;10.358;2022-09-09T12:56:26;26.60;99.90
22850;DHT22;11591;44.792;10.358;2022-09-09T12:58:54;26.60;99.90
22850;DHT22;11591;44.792;10.358;2022-09-09T13:01:29;26.60;99.90
22850;DHT22;11591;44.792;10.358;2022-09-09T13:03:56;26.60;99.90
22850;DHT22;11591;44.792;10.358;2022-09-09T13:06:25;26.60;99.90
22850;DHT22;11591;44.792;10.358;2022-09-09T13:08:55;26.50;99.90
22850;DHT22;11591;44.792;10.358;2022-09-09T13:11:42;26.50;99.90
22850;DHT22;11591;44.792;10.358;2022-09-09T13:14:16;26.40;99.90
22850;DHT22;11591;44.792;10.358;2022-09-09T13:16:55;26.40;99.90
22850;DHT22;11591;44.792;10.358;2022-09-09T13:19:21;26.40;99.90
22850;DHT22;11591;44.792;10.358;2022-09-09T13:21:47;26.50;99.90
22850;DHT22;11591;44.792;10.358;2022-09-09T13:24:32;26.50;99.90
22850;DHT22;11591;44.792;10.358;2022-09-09T13:29:28;26.80;99.90
22850;DHT22;11591;44.792;10.358;2022-09-09T13:32:04;27.30;99.90
22850;DHT22;11591;44.792;10.358;2022-09-09T13:34:32;27.90;99.90
22850;DHT22;11591;44.792;10.358;2022-09-09T13:37:06;28.00;99.90
22850;DHT22;11591;44.792;10.358;2022-09-09T13:39:36;28.40;99.90
22850;DHT22;11591;44.792;10.358;2022-09-09T13:42:03;29.00;99.90
22850;DHT22;11591;44.792;10.358;2022-09-09T13:44:40;29.60;99.90
22850;DHT22;11591;44.792;10.358;2022-09-09T13:49:38;31.00;99.90
22850;DHT22;11591;44.792;10.358;2022-09-09T13:52:15;30.60;99.90
22850;DHT22;11591;44.792;10.358;2022-09-09T13:54:42;30.60;99.90
22850;DHT22;11591;44.792;10.358;2022-09-09T13:57:19;31.30;99.90
22850;DHT22;11591;44.792;10.358;2022-09-09T13:59:49;32.10;99.90
22850;DHT22;11591;44.792;10.358;2022-09-09T14:02:15;32.60;99.90
22850;DHT22;11591;44.792;10.358;2022-09-09T14:04:42;33.00;99.90
22850;DHT22;11591;44.792;10.358;2022-09-09T14:07:15;33.50;99.90
22850;DHT22;11591;44.792;10.358;2022-09-09T14:09:42;33.50;99.90
22850;DHT22;11591;44.792;10.358;2022-09-09T14:12:11;33.70;99.90
22850;DHT22;11591;44.792;10.358;2022-09-09T14:14:38;34.10;99.90
22850;DHT22;11591;44.792;10.358;2022-09-09T14:17:04;34.30;99.90
22850;DHT22;11591;44.792;10.358;2022-09-09T14:19:30;33.90;99.90
22850;DHT22;11591;44.792;10.358;2022-09-09T14:21:57;33.20;99.90
22850;DHT22;11591;44.792;10.358;2022-09-09T14:24:23;32.30;99.90
22850;DHT22;11591;44.792;10.358;2022-09-09T14:26:49;32.50;99.90
22850;DHT22;11591;44.792;10.358;2022-09-09T14:29:14;32.50;99.90
22850;DHT22;11591;44.792;10.358;2022-09-09T14:31:40;32.60;99.90
22850;DHT22;11591;44.792;10.358;2022-09-09T14:34:06;32.70;99.90
22850;DHT22;11591;44.792;10.358;2022-09-09T14:36:32;32.60;99.90
22850;DHT22;11591;44.792;10.358;2022-09-09T14:38:58;32.50;99.90
22850;DHT22;11591;44.792;10.358;2022-09-09T14:41:24;32.40;99.90
22850;DHT22;11591;44.792;10.358;2022-09-09T14:43:51;32.30;99.90
22850;DHT22;11591;44.792;10.358;2022-09-09T14:46:19;31.70;99.90
22850;DHT22;11591;44.792;10.358;2022-09-09T14:48:45;31.80;99.90
22850;DHT22;11591;44.792;10.358;2022-09-09T14:51:22;32.10;99.90
22850;DHT22;11591;44.792;10.358;2022-09-09T14:53:51;32.10;99.90
22850;DHT22;11591;44.792;10.358;2022-09-09T14:56:20;32.20;99.90
22850;DHT22;11591;44.792;10.358;2022-09-09T14:58:47;32.20;99.90
22850;DHT22;11591;44.792;10.358;2022-09-09T15:01:16;32.00;99.90
22850;DHT22;11591;44.792;10.358;2022-09-09T15:03:47;32.20;99.90
22850;DHT22;11591;44.792;10.358;2022-09-09T15:06:14;32.10;99.90
22850;DHT22;11591;44.792;10.358;2022-09-09T15:08:42;31.90;99.90
22850;DHT22;11591;44.792;10.358;2022-09-09T15:11:09;32.40;99.90
22850;DHT22;11591;44.792;10.358;2022-09-09T15:13:36;32.80;99.90
22850;DHT22;11591;44.792;10.358;2022-09-09T15:16:31;32.80;99.90
22850;DHT22;11591;44.792;10.358;2022-09-09T15:18:59;32.30;99.90
22850;DHT22;11591;44.792;10.358;2022-09-09T15:21:28;32.10;99.90
22850;DHT22;11591;44.792;10.358;2022-09-09T15:23:55;31.90;99.90
22850;DHT22;11591;44.792;10.358;2022-09-09T15:26:22;31.90;99.90
22850;DHT22;11591;44.792;10.358;2022-09-09T15:28:48;32.30;99.90
22850;DHT22;11591;44.792;10.358;2022-09-09T15:31:27;32.60;99.90
22850;DHT22;11591;44.792;10.358;2022-09-09T15:33:58;32.70;99.90
22850;DHT22;11591;44.792;10.358;2022-09-09T15:36:34;32.50;99.90
22850;DHT22;11591;44.792;10.358;2022-09-09T15:39:01;32.40;99.90
22850;DHT22;11591;44.792;10.358;2022-09-09T15:41:28;32.60;99.90
22850;DHT22;11591;44.792;10.358;2022-09-09T15:43:56;32.80;99.90
22850;DHT22;11591;44.792;10.358;2022-09-09T15:49:26;33.40;99.90
22850;DHT22;11591;44.792;10.358;2022-09-09T15:51:55;33.30;99.90
22850;DHT22;11591;44.792;10.358;2022-09-09T15:54:24;33.30;99.90
22850;DHT22;11591;44.792;10.358;2022-09-09T15:56:55;33.20;99.90
22850;DHT22;11591;44.792;10.358;2022-09-09T15:59:26;33.20;99.90
22850;DHT22;11591;44.792;10.358;2022-09-09T16:01:53;33.20;99.90
22850;DHT22;11591;44.792;10.358;2022-09-09T16:04:21;33.10;99.90
22850;DHT22;11591;44.792;10.358;2022-09-09T16:07:01;33.10;99.90
22850;DHT22;11591;44.792;10.358;2022-09-09T16:09:29;33.10;99.90
22850;DHT22;11591;44.792;10.358;2022-09-09T16:12:02;32.70;99.90
22850;DHT22;11591;44.792;10.358;2022-09-09T16:14:31;32.70;99.90
22850;DHT22;11591;44.792;10.358;2022-09-09T16:17:02;32.60;99.90
22850;DHT22;11591;44.792;10.358;2022-09-09T16:19:28;32.60;99.90
22850;DHT22;11591;44.792;10.358;2022-09-09T16:21:53;32.50;99.90
22850;DHT22;11591;44.792;10.358;2022-09-09T16:24:20;32.50;99.90
22850;DHT22;11591;44.792;10.358;2022-09-09T16:26:48;32.40;99.90
22850;DHT22;11591;44.792;10.358;2022-09-09T16:29:16;32.40;99.90
22850;DHT22;11591;44.792;10.358;2022-09-09T16:31:43;32.30;99.90
22850;DHT22;11591;44.792;10.358;2022-09-09T16:34:10;32.10;99.90
22850;DHT22;11591;44.792;10.358;2022-09-09T16:36:38;31.90;99.90
22850;DHT22;11591;44.792;10.358;2022-09-09T16:39:10;31.80;99.90
22850;DHT22;11591;44.792;10.358;2022-09-09T16:41:37;31.60;99.90
22850;DHT22;11591;44.792;10.358;2022-09-09T16:44:08;31.40;99.90
22850;DHT22;11591;44.792;10.358;2022-09-09T16:46:39;31.30;99.90
22850;DHT22;11591;44.792;10.358;2022-09-09T16:49:08;31.20;99.90
22850;DHT22;11591;44.792;10.358;2022-09-09T16:51:43;31.20;99.90
22850;DHT22;11591;44.792;10.358;2022-09-09T16:54:10;31.10;99.90
22850;DHT22;11591;44.792;10.358;2022-09-09T16:56:38;30.90;99.90
22850;DHT22;11591;44.792;10.358;2022-09-09T16:59:12;30.80;99.90
22850;DHT22;11591;44.792;10.358;2022-09-09T17:01:41;30.70;99.90
22850;DHT22;11591;44.792;10.358;2022-09-09T17:04:10;30.60;99.90
22850;DHT22;11591;44.792;10.358;2022-09-09T17:06:37;30.40;99.90
22850;DHT22;11591;44.792;10.358;2022-09-09T17:09:12;30.20;99.90
22850;DHT22;11591;44.792;10.358;2022-09-09T17:11:41;30.10;99.90
22850;DHT22;11591;44.792;10.358;2022-09-09T17:14:10;30.00;99.90
22850;DHT22;11591;44.792;10.358;2022-09-09T17:16:36;30.00;99.90
22850;DHT22;11591;44.792;10.358;2022-09-09T17:19:06;30.00;99.90
22850;DHT22;11591;44.792;10.358;2022-09-09T17:21:41;29.80;99.90
22850;DHT22;11591;44.792;10.358;2022-09-09T17:24:13;29.80;99.90
22850;DHT22;11591;44.792;10.358;2022-09-09T17:26:40;29.70;99.90
22850;DHT22;11591;44.792;10.358;2022-09-09T17:29:11;29.50;99.90
22850;DHT22;11591;44.792;10.358;2022-09-09T17:31:40;29.40;99.90
22850;DHT22;11591;44.792;10.358;2022-09-09T17:34:10;29.30;99.90
22850;DHT22;11591;44.792;10.358;2022-09-09T17:36:37;29.00;99.90
22850;DHT22;11591;44.792;10.358;2022-09-09T17:39:08;28.80;99.90
22850;DHT22;11591;44.792;10.358;2022-09-09T17:41:39;28.70;99.90
22850;DHT22;11591;44.792;10.358;2022-09-09T17:44:09;28.50;99.90
22850;DHT22;11591;44.792;10.358;2022-09-09T17:46:41;28.40;99.90
22850;DHT22;11591;44.792;10.358;2022-09-09T17:49:09;28.30;99.90
22850;DHT22;11591;44.792;10.358;2022-09-09T17:51:36;28.20;99.90
22850;DHT22;11591;44.792;10.358;2022-09-09T17:54:05;28.10;99.90
22850;DHT22;11591;44.792;10.358;2022-09-09T17:56:33;28.10;99.90
22850;DHT22;11591;44.792;10.358;2022-09-09T17:59:01;28.00;99.90
22850;DHT22;11591;44.792;10.358;2022-09-09T18:01:33;27.90;99.90
22850;DHT22;11591;44.792;10.358;2022-09-09T18:04:01;27.80;99.90
22850;DHT22;11591;44.792;10.358;2022-09-09T18:06:31;27.80;99.90
22850;DHT22;11591;44.792;10.358;2022-09-09T18:09:00;27.70;99.90
22850;DHT22;11591;44.792;10.358;2022-09-09T18:11:29;27.60;99.90
22850;DHT22;11591;44.792;10.358;2022-09-09T18:13:59;27.60;99.90
22850;DHT22;11591;44.792;10.358;2022-09-09T18:16:28;27.50;99.90
22850;DHT22;11591;44.792;10.358;2022-09-09T18:18:55;27.50;99.90
22850;DHT22;11591;44.792;10.358;2022-09-09T18:21:23;27.40;99.90
22850;DHT22;11591;44.792;10.358;2022-09-09T18:23:51;27.30;99.90
22850;DHT22;11591;44.792;10.358;2022-09-09T18:26:22;27.20;99.90
22850;DHT22;11591;44.792;10.358;2022-09-09T18:28:52;27.20;99.90
22850;DHT22;11591;44.792;10.358;2022-09-09T18:31:19;27.10;99.90
22850;DHT22;11591;44.792;10.358;2022-09-09T18:33:46;26.90;99.90
22850;DHT22;11591;44.792;10.358;2022-09-09T18:36:21;27.00;99.90
22850;DHT22;11591;44.792;10.358;2022-09-09T18:38:47;26.90;99.90
22850;DHT22;11591;44.792;10.358;2022-09-09T18:41:18;26.90;99.90
22850;DHT22;11591;44.792;10.358;2022-09-09T18:43:46;26.90;99.90
22850;DHT22;11591;44.792;10.358;2022-09-09T18:46:12;26.90;99.90
22850;DHT22;11591;44.792;10.358;2022-09-09T18:48:40;26.80;99.90
22850;DHT22;11591;44.792;10.358;2022-09-09T18:51:09;26.80;99.90
22850;DHT22;11591;44.792;10.358;2022-09-09T18:53:36;26.80;99.90
22850;DHT22;11591;44.792;10.358;2022-09-09T18:56:04;26.80;99.90
22850;DHT22;11591;44.792;10.358;2022-09-09T18:58:31;26.80;99.90
22850;DHT22;11591;44.792;10.358;2022-09-09T19:00:58;26.60;99.90
22850;DHT22;11591;44.792;10.358;2022-09-09T19:03:25;26.50;99.90
22850;DHT22;11591;44.792;10.358;2022-09-09T19:05:52;26.40;99.90
22850;DHT22;11591;44.792;10.358;2022-09-09T19:08:19;26.40;99.90
22850;DHT22;11591;44.792;10.358;2022-09-09T19:10:46;26.30;99.90
22850;DHT22;11591;44.792;10.358;2022-09-09T19:13:12;26.40;99.90
22850;DHT22;11591;44.792;10.358;2022-09-09T19:15:39;26.40;99.90
22850;DHT22;11591;44.792;10.358;2022-09-09T19:18:05;26.30;99.90
22850;DHT22;11591;44.792;10.358;2022-09-09T19:20:31;26.20;99.90
22850;DHT22;11591;44.792;10.358;2022-09-09T19:22:57;26.20;99.90
22850;DHT22;11591;44.792;10.358;2022-09-09T19:25:24;26.20;99.90
22850;DHT22;11591;44.792;10.358;2022-09-09T19:27:50;26.10;99.90
22850;DHT22;11591;44.792;10.358;2022-09-09T19:30:16;26.10;99.90
22850;DHT22;11591;44.792;10.358;2022-09-09T19:32:41;26.10;99.90
22850;DHT22;11591;44.792;10.358;2022-09-09T19:35:08;26.10;99.90
22850;DHT22;11591;44.792;10.358;2022-09-09T19:37:34;26.00;99.90
22850;DHT22;11591;44.792;10.358;2022-09-09T19:40:00;26.00;99.90
22850;DHT22;11591;44.792;10.358;2022-09-09T19:42:26;26.10;99.90
22850;DHT22;11591;44.792;10.358;2022-09-09T19:44:54;26.10;99.90
22850;DHT22;11591;44.792;10.358;2022-09-09T19:47:22;26.10;99.90
22850;DHT22;11591;44.792;10.358;2022-09-09T19:49:48;26.00;99.90
22850;DHT22;11591;44.792;10.358;2022-09-09T19:52:17;26.00;99.90
22850;DHT22;11591;44.792;10.358;2022-09-09T19:54:44;26.00;99.90
22850;DHT22;11591;44.792;10.358;2022-09-09T19:57:09;25.90;99.90
22850;DHT22;11591;44.792;10.358;2022-09-09T19:59:35;25.90;99.90
22850;DHT22;11591;44.792;10.358;2022-09-09T20:02:01;25.90;99.90
22850;DHT22;11591;44.792;10.358;2022-09-09T20:04:27;25.90;99.90
22850;DHT22;11591;44.792;10.358;2022-09-09T20:06:53;25.80;99.90
22850;DHT22;11591;44.792;10.358;2022-09-09T20:09:20;25.70;99.90
22850;DHT22;11591;44.792;10.358;2022-09-09T20:11:47;25.70;99.90
22850;DHT22;11591;44.792;10.358;2022-09-09T20:14:15;25.70;99.90
22850;DHT22;11591;44.792;10.358;2022-09-09T20:16:42;25.70;99.90
22850;DHT22;11591;44.792;10.358;2022-09-09T20:19:10;25.60;99.90
22850;DHT22;11591;44.792;10.358;2022-09-09T20:21:41;25.60;99.90
22850;DHT22;11591;44.792;10.358;2022-09-09T20:24:12;25.60;99.90
22850;DHT22;11591;44.792;10.358;2022-09-09T20:26:38;25.60;99.90
22850;DHT22;11591;44.792;10.358;2022-09-09T20:29:07;25.60;99.90
22850;DHT22;11591;44.792;10.358;2022-09-09T20:31:37;25.60;99.90
22850;DHT22;11591;44.792;10.358;2022-09-09T20:34:07;25.50;99.90
22850;DHT22;11591;44.792;10.358;2022-09-09T20:36:35;25.50;99.90
22850;DHT22;11591;44.792;10.358;2022-09-09T20:39:07;25.40;99.90
22850;DHT22;11591;44.792;10.358;2022-09-09T20:41:36;25.30;99.90
22850;DHT22;11591;44.792;10.358;2022-09-09T20:44:09;25.30;99.90
22850;DHT22;11591;44.792;10.358;2022-09-09T20:46:40;25.30;99.90
22850;DHT22;11591;44.792;10.358;2022-09-09T20:49:09;25.30;99.90
22850;DHT22;11591;44.792;10.358;2022-09-09T20:51:36;25.30;99.90
22850;DHT22;11591;44.792;10.358;2022-09-09T20:54:08;25.20;99.90
22850;DHT22;11591;44.792;10.358;2022-09-09T20:56:36;25.20;99.90
22850;DHT22;11591;44.792;10.358;2022-09-09T20:59:04;25.20;99.90
22850;DHT22;11591;44.792;10.358;2022-09-09T21:01:30;25.10;99.90
22850;DHT22;11591;44.792;10.358;2022-09-09T21:03:56;25.10;99.90
22850;DHT22;11591;44.792;10.358;2022-09-09T21:06:22;25.10;99.90
22850;DHT22;11591;44.792;10.358;2022-09-09T21:08:48;25.00;99.90
22850;DHT22;11591;44.792;10.358;2022-09-09T21:11:15;24.90;99.90
22850;DHT22;11591;44.792;10.358;2022-09-09T21:13:42;24.70;99.90
22850;DHT22;11591;44.792;10.358;2022-09-09T21:16:13;24.50;99.90
22850;DHT22;11591;44.792;10.358;2022-09-09T21:18:40;24.50;99.90
22850;DHT22;11591;44.792;10.358;2022-09-09T21:21:07;24.50;99.90
22850;DHT22;11591;44.792;10.358;2022-09-09T21:23:33;24.50;99.90
22850;DHT22;11591;44.792;10.358;2022-09-09T21:26:00;24.50;99.90
22850;DHT22;11591;44.792;10.358;2022-09-09T21:28:26;24.60;99.90
22850;DHT22;11591;44.792;10.358;2022-09-09T21:30:53;24.50;99.90
22850;DHT22;11591;44.792;10.358;2022-09-09T21:33:22;24.50;99.90
22850;DHT22;11591;44.792;10.358;2022-09-09T21:35:48;24.40;99.90
22850;DHT22;11591;44.792;10.358;2022-09-09T21:38:22;24.40;99.90
22850;DHT22;11591;44.792;10.358;2022-09-09T21:40:50;24.30;99.90
22850;DHT22;11591;44.792;10.358;2022-09-09T21:43:17;24.20;99.90
22850;DHT22;11591;44.792;10.358;2022-09-09T21:45:44;24.20;99.90
22850;DHT22;11591;44.792;10.358;2022-09-09T21:48:12;24.20;99.90